Time;durP1;ratioP1;P1;durP2;ratioP2;P2;SDS_P1;SDS_P2;PMS_P1;PMS_P2;Temp;Humidity;BMP_temperature;BMP_pressure;BME280_temperature;BME280_humidity;BME280_pressure;Samples;Min_cycle;Max_cycle;Signal;HPM_P1;HPM_P2
2023/10/18 00:02:18;;;;;;;11.07;5.47;;;5.70;99.90;;;;;;5002449;28;20056;-77
2023/10/18 00:04:44;;;;;;;14.15;5.55;;;5.70;99.90;;;;;;4987438;28;20110;-78
2023/10/18 00:07:12;;;;;;;9.57;5.35;;;5.70;99.90;;;;;;4996099;28;20033;-76
2023/10/18 00:09:51;;;;;;;11.73;5.35;;;5.60;99.90;;;;;;5002506;28;20037;-77
2023/10/18 00:12:16;;;;;;;11.20;5.95;;;5.60;99.90;;;;;;5003725;28;20132;-77
2023/10/18 00:14:49;;;;;;;9.50;6.32;;;5.60;99.90;;;;;;5007135;28;20191;-77
2023/10/18 00:17:15;;;;;;;14.30;6.40;;;5.60;99.90;;;;;;5003720;28;20068;-77
2023/10/18 00:19:40;;;;;;;15.10;6.78;;;5.60;99.90;;;;;;5003223;28;20070;-77
2023/10/18 00:22:12;;;;;;;11.55;6.63;;;5.50;99.90;;;;;;5001471;28;20050;-77
2023/10/18 00:24:37;;;;;;;11.02;6.30;;;5.60;99.90;;;;;;4999294;28;20070;-76
2023/10/18 00:27:04;;;;;;;9.70;6.60;;;5.50;99.90;;;;;;5000672;28;20501;-77
2023/10/18 00:29:30;;;;;;;14.90;6.40;;;5.50;99.90;;;;;;5006643;28;20080;-77
2023/10/18 00:31:56;;;;;;;13.43;7.70;;;5.60;99.90;;;;;;4987402;28;20042;-77
2023/10/18 00:34:22;;;;;;;12.13;6.93;;;5.50;99.90;;;;;;4987030;28;20049;-77
2023/10/18 00:36:48;;;;;;;13.18;7.22;;;5.50;99.90;;;;;;4987494;28;20107;-78
2023/10/18 00:39:27;;;;;;;13.93;7.15;;;5.50;99.90;;;;;;4997399;28;20041;-78
2023/10/18 00:41:54;;;;;;;11.15;6.63;;;5.50;99.90;;;;;;4999410;28;20045;-77
2023/10/18 00:44:21;;;;;;;12.70;7.00;;;5.50;99.90;;;;;;5005483;28;20507;-78
2023/10/18 00:46:53;;;;;;;13.02;7.90;;;5.50;99.90;;;;;;5001679;28;20349;-77
2023/10/18 00:49:20;;;;;;;12.93;7.60;;;5.40;99.90;;;;;;5006195;28;20121;-76
2023/10/18 00:51:47;;;;;;;17.70;7.75;;;5.40;99.90;;;;;;5003558;28;20046;-77
2023/10/18 00:54:14;;;;;;;12.68;8.15;;;5.50;99.90;;;;;;5003846;28;20396;-77
2023/10/18 00:56:43;;;;;;;13.07;7.88;;;5.50;99.90;;;;;;4983347;28;20042;-77
2023/10/18 00:59:21;;;;;;;14.25;8.07;;;5.50;99.90;;;;;;5003601;28;20041;-77
2023/10/18 01:01:56;;;;;;;12.73;8.05;;;5.50;99.90;;;;;;5002444;28;20168;-78
2023/10/18 01:04:24;;;;;;;17.10;8.85;;;5.40;99.90;;;;;;5014008;28;20100;-78
2023/10/18 01:06:50;;;;;;;17.02;8.38;;;5.40;99.90;;;;;;5003029;28;20054;-77
2023/10/18 01:09:17;;;;;;;14.50;9.05;;;5.50;99.90;;;;;;4997772;28;20088;-77
2023/10/18 01:11:46;;;;;;;16.17;9.07;;;5.40;99.90;;;;;;5019838;28;20672;-77
2023/10/18 01:14:18;;;;;;;16.15;9.52;;;5.50;99.90;;;;;;4999692;28;20064;-76
2023/10/18 01:16:47;;;;;;;18.33;10.38;;;5.50;99.90;;;;;;5000772;28;20042;-77
2023/10/18 01:19:15;;;;;;;18.70;9.65;;;5.40;99.90;;;;;;4999408;28;20050;-78
2023/10/18 01:21:45;;;;;;;16.30;9.70;;;5.40;99.90;;;;;;5001199;28;20048;-77
2023/10/18 01:24:14;;;;;;;20.95;10.68;;;5.40;99.90;;;;;;5015663;28;20048;-77
2023/10/18 01:26:40;;;;;;;19.63;10.15;;;5.40;99.90;;;;;;4996155;28;20057;-78
2023/10/18 01:29:09;;;;;;;20.90;10.05;;;5.40;99.90;;;;;;5018577;28;20507;-76
2023/10/18 01:31:36;;;;;;;19.15;11.25;;;5.40;99.90;;;;;;5017191;28;20507;-77
2023/10/18 01:34:05;;;;;;;18.92;11.32;;;5.30;99.90;;;;;;4988264;28;20042;-76
2023/10/18 01:36:32;;;;;;;25.52;12.48;;;5.30;99.90;;;;;;4997205;28;20504;-77
2023/10/18 01:38:58;;;;;;;19.88;10.80;;;5.30;99.90;;;;;;5001468;28;20054;-77
2023/10/18 01:41:29;;;;;;;19.98;10.90;;;5.30;99.90;;;;;;4996550;28;20041;-78
2023/10/18 01:44:10;;;;;;;19.45;10.70;;;5.30;99.90;;;;;;5001110;28;20045;-77
2023/10/18 01:46:38;;;;;;;18.65;11.35;;;5.30;99.90;;;;;;5000477;28;20116;-77
2023/10/18 01:49:06;;;;;;;19.75;11.55;;;5.30;99.90;;;;;;5000140;28;20093;-77
2023/10/18 01:51:32;;;;;;;21.52;12.20;;;5.20;99.90;;;;;;5000574;28;20133;-77
2023/10/18 01:54:05;;;;;;;22.42;13.57;;;5.20;99.90;;;;;;5001325;28;20116;-77
2023/10/18 01:56:31;;;;;;;21.63;12.43;;;5.20;99.90;;;;;;4991892;28;20045;-77
2023/10/18 01:58:57;;;;;;;23.83;14.43;;;5.20;99.90;;;;;;4994570;28;20388;-77
2023/10/18 02:01:23;;;;;;;24.25;13.80;;;5.30;99.90;;;;;;4998773;28;20041;-77
2023/10/18 02:03:51;;;;;;;24.77;15.00;;;5.30;99.90;;;;;;4995160;28;20416;-77
2023/10/18 02:06:17;;;;;;;24.45;14.68;;;5.30;99.90;;;;;;4998798;28;20048;-77
2023/10/18 02:08:43;;;;;;;23.48;15.05;;;5.30;99.90;;;;;;4999406;28;20046;-77
2023/10/18 02:11:09;;;;;;;25.02;16.05;;;5.30;99.90;;;;;;4999887;28;20060;-77
2023/10/18 02:13:39;;;;;;;28.67;16.92;;;5.30;99.90;;;;;;4998897;28;20193;-77
2023/10/18 02:16:06;;;;;;;31.63;16.60;;;5.30;99.90;;;;;;5014824;28;20667;-76
2023/10/18 02:18:33;;;;;;;28.52;16.48;;;5.40;99.90;;;;;;4999100;28;20042;-77
2023/10/18 02:21:00;;;;;;;28.40;17.45;;;5.40;99.90;;;;;;5002958;28;20041;-77
2023/10/18 02:23:34;;;;;;;31.02;18.70;;;5.40;99.90;;;;;;4995545;28;20045;-77
2023/10/18 02:26:14;;;;;;;30.25;17.55;;;5.40;99.90;;;;;;5000290;28;20045;-77
2023/10/18 02:28:41;;;;;;;32.00;18.42;;;5.40;99.90;;;;;;5016410;28;20538;-77
2023/10/18 02:33:45;;;;;;;33.95;19.00;;;5.40;99.90;;;;;;4998018;28;20471;-77
2023/10/18 02:36:11;;;;;;;32.63;18.40;;;5.40;99.90;;;;;;4979710;28;20096;-76
2023/10/18 02:38:38;;;;;;;30.13;18.27;;;5.30;99.90;;;;;;4997894;28;20400;-76
2023/10/18 02:43:49;;;;;;;31.92;18.60;;;5.30;99.90;;;;;;5013434;28;20136;-77
2023/10/18 02:46:23;;;;;;;36.40;19.48;;;5.30;99.90;;;;;;5000836;28;20132;-77
2023/10/18 02:48:52;;;;;;;38.08;20.13;;;5.30;99.90;;;;;;5019764;28;20050;-77
2023/10/18 02:51:22;;;;;;;33.33;19.30;;;5.30;99.90;;;;;;5018789;28;20061;-77
2023/10/18 02:53:51;;;;;;;34.83;19.88;;;5.30;99.90;;;;;;4990821;28;20053;-77
2023/10/18 02:56:17;;;;;;;31.80;19.50;;;5.30;99.90;;;;;;5017016;28;20073;-77
2023/10/18 02:58:47;;;;;;;34.28;20.55;;;5.30;99.90;;;;;;4998198;28;20041;-77
2023/10/18 03:01:18;;;;;;;35.92;19.95;;;5.30;99.90;;;;;;5016630;28;20045;-76
2023/10/18 03:03:46;;;;;;;34.22;19.42;;;5.30;99.90;;;;;;5011240;28;20053;-77
2023/10/18 03:06:16;;;;;;;32.08;20.70;;;5.30;99.90;;;;;;4996946;28;20046;-77
2023/10/18 03:08:49;;;;;;;36.15;20.40;;;5.20;99.90;;;;;;4988824;28;20045;-77
2023/10/18 03:11:17;;;;;;;35.38;20.25;;;5.20;99.90;;;;;;5003082;28;20441;-77
2023/10/18 03:13:43;;;;;;;35.40;21.60;;;5.30;99.90;;;;;;4978833;28;20071;-77
2023/10/18 03:18:44;;;;;;;37.15;21.17;;;5.20;99.90;;;;;;5000523;28;20052;-76
2023/10/18 03:21:20;;;;;;;36.88;20.35;;;5.20;99.90;;;;;;4979636;28;20064;-77
2023/10/18 03:23:52;;;;;;;30.98;19.25;;;5.30;99.90;;;;;;4984856;28;20053;-77
2023/10/18 03:26:35;;;;;;;37.15;19.88;;;5.30;99.90;;;;;;4996070;28;20074;-78
2023/10/18 03:29:16;;;;;;;33.88;20.05;;;5.30;99.90;;;;;;4999825;28;20041;-77
2023/10/18 03:31:44;;;;;;;39.80;20.20;;;5.30;99.90;;;;;;5003460;28;20564;-77
2023/10/18 03:34:29;;;;;;;33.78;19.05;;;5.30;99.90;;;;;;4999915;28;20440;-77
2023/10/18 03:36:54;;;;;;;33.35;20.02;;;5.20;99.90;;;;;;5002452;28;20042;-77
2023/10/18 03:39:24;;;;;;;36.90;19.65;;;5.30;99.90;;;;;;5002448;28;20033;-77
2023/10/18 03:41:50;;;;;;;31.75;19.13;;;5.30;99.90;;;;;;5002847;28;20111;-77
2023/10/18 03:44:26;;;;;;;32.40;18.63;;;5.30;99.90;;;;;;4997538;28;20041;-77
2023/10/18 03:47:03;;;;;;;29.23;17.83;;;5.20;99.90;;;;;;5005918;28;20057;-77
2023/10/18 03:51:57;;;;;;;31.15;19.30;;;5.20;99.90;;;;;;5001627;28;21585;-78
2023/10/18 03:54:23;;;;;;;34.95;19.80;;;5.20;99.90;;;;;;5002787;28;20037;-76
2023/10/18 03:56:53;;;;;;;31.60;17.92;;;5.20;99.90;;;;;;5001670;28;20404;-78
2023/10/18 03:59:25;;;;;;;31.38;18.33;;;5.10;99.90;;;;;;5000461;28;20089;-77
2023/10/18 04:02:15;;;;;;;28.50;18.20;;;5.10;99.90;;;;;;5001857;28;20049;-77
2023/10/18 04:04:45;;;;;;;30.33;18.73;;;5.10;99.90;;;;;;5014418;28;20071;-78
2023/10/18 04:07:17;;;;;;;34.53;18.42;;;5.10;99.90;;;;;;4987628;28;20763;-78
2023/10/18 04:10:35;;;;;;;32.83;18.67;;;5.10;99.90;;;;;;4997137;28;20516;-77
2023/10/18 04:12:34;;;;;;;30.15;18.35;;;5.00;99.90;;;;;;4997058;28;20042;-77
2023/10/18 04:14:59;;;;;;;28.33;17.55;;;5.00;99.90;;;;;;5003884;28;20043;-77
2023/10/18 04:20:01;;;;;;;30.92;20.17;;;5.10;99.90;;;;;;4999953;28;20068;-77
2023/10/18 04:22:30;;;;;;;32.95;20.08;;;5.10;99.90;;;;;;5022379;28;20050;-76
2023/10/18 04:24:56;;;;;;;29.23;18.42;;;5.10;99.90;;;;;;5003501;28;20546;-77
2023/10/18 04:27:23;;;;;;;28.75;17.65;;;5.10;99.90;;;;;;5003073;28;20041;-76
2023/10/18 04:29:49;;;;;;;33.13;19.98;;;5.20;99.90;;;;;;4999936;28;20107;-77
2023/10/18 04:32:18;;;;;;;31.00;18.73;;;5.10;99.90;;;;;;5016536;28;20045;-77
2023/10/18 04:34:46;;;;;;;33.45;19.00;;;5.20;99.90;;;;;;5005021;28;20050;-78
2023/10/18 04:37:14;;;;;;;32.70;19.00;;;5.20;99.90;;;;;;5018569;28;20058;-77
2023/10/18 04:39:40;;;;;;;29.13;18.05;;;5.20;99.90;;;;;;4998715;28;20046;-77
2023/10/18 04:42:08;;;;;;;30.45;18.77;;;5.30;99.90;;;;;;5000234;28;20049;-77
2023/10/18 04:44:36;;;;;;;33.38;18.42;;;5.20;99.90;;;;;;5001532;28;20077;-77
2023/10/18 04:47:14;;;;;;;28.00;18.15;;;5.30;99.90;;;;;;5001242;28;20058;-77
2023/10/18 04:49:40;;;;;;;28.75;18.23;;;5.30;99.90;;;;;;5002927;28;20053;-78
2023/10/18 04:52:17;;;;;;;32.53;19.45;;;5.30;99.90;;;;;;5000408;28;20405;-77
2023/10/18 04:54:47;;;;;;;29.40;19.25;;;5.40;99.90;;;;;;5017466;28;20493;-77
2023/10/18 04:57:13;;;;;;;30.00;19.00;;;5.30;99.90;;;;;;5001828;28;20056;-76
2023/10/18 04:59:45;;;;;;;31.73;19.15;;;5.40;99.90;;;;;;5001700;28;20034;-78
2023/10/18 05:02:16;;;;;;;31.53;19.37;;;5.40;99.90;;;;;;4997057;28;20041;-78
2023/10/18 05:04:42;;;;;;;30.95;19.35;;;5.50;99.90;;;;;;4996221;28;20136;-78
2023/10/18 05:07:14;;;;;;;31.60;20.30;;;5.50;99.90;;;;;;5017715;28;20034;-77
2023/10/18 05:12:07;;;;;;;33.30;18.85;;;5.60;99.90;;;;;;4998503;28;20394;-76
2023/10/18 05:14:42;;;;;;;35.85;20.25;;;5.60;99.90;;;;;;4999891;28;20051;-77
2023/10/18 05:17:21;;;;;;;30.60;20.20;;;5.60;99.90;;;;;;5003316;28;20049;-76
2023/10/18 05:19:48;;;;;;;31.52;20.00;;;5.60;99.90;;;;;;4983454;28;20060;-77
2023/10/18 05:22:24;;;;;;;31.10;19.38;;;5.60;99.90;;;;;;5000337;28;20045;-78
2023/10/18 05:27:46;;;;;;;33.47;20.00;;;5.60;99.90;;;;;;4996456;28;20047;-77
2023/10/18 05:30:16;;;;;;;32.08;19.88;;;5.60;99.90;;;;;;4982173;28;20492;-74
2023/10/18 05:35:26;;;;;;;31.60;20.42;;;5.60;99.90;;;;;;4994691;28;20361;-75
2023/10/18 05:43:29;;;;;;;29.70;19.75;;;5.50;99.90;;;;;;5001411;28;20064;-75
2023/10/18 05:45:56;;;;;;;37.40;20.27;;;5.50;99.90;;;;;;4987663;28;20049;-76
2023/10/18 05:48:23;;;;;;;42.60;21.75;;;5.60;99.90;;;;;;4996006;28;20045;-75
2023/10/18 05:50:49;;;;;;;30.27;19.98;;;5.50;99.90;;;;;;4996961;28;20053;-77
2023/10/18 05:53:24;;;;;;;32.10;21.85;;;5.50;99.90;;;;;;4998844;28;20266;-76
2023/10/18 05:55:52;;;;;;;33.42;20.52;;;5.50;99.90;;;;;;4987718;28;20612;-76
2023/10/18 05:58:25;;;;;;;32.30;19.75;;;5.50;99.90;;;;;;5014461;28;20405;-77
2023/10/18 06:00:52;;;;;;;33.85;20.88;;;5.50;99.90;;;;;;5000075;28;20080;-77
2023/10/18 06:03:19;;;;;;;33.63;20.77;;;5.50;99.90;;;;;;4996823;28;20072;-76
2023/10/18 06:05:45;;;;;;;33.03;20.58;;;5.50;99.90;;;;;;4994676;28;20095;-76
2023/10/18 06:08:13;;;;;;;29.45;20.15;;;5.50;99.90;;;;;;5001161;28;20066;-77
2023/10/18 06:10:39;;;;;;;35.83;21.77;;;5.50;99.90;;;;;;4995246;28;20116;-76
2023/10/18 06:13:09;;;;;;;28.85;20.73;;;5.50;99.90;;;;;;4991684;28;20583;-76
2023/10/18 06:15:38;;;;;;;33.33;20.45;;;5.50;99.90;;;;;;5001631;28;20049;-79
2023/10/18 06:18:09;;;;;;;30.50;20.35;;;5.60;99.90;;;;;;4999158;28;20568;-75
2023/10/18 06:20:38;;;;;;;31.40;18.77;;;5.60;99.90;;;;;;5004088;28;20044;-76
2023/10/18 06:25:51;;;;;;;27.50;20.05;;;5.60;99.90;;;;;;4999983;28;20167;-75
2023/10/18 06:28:21;;;;;;;29.58;19.95;;;5.60;99.90;;;;;;5015745;28;20136;-76
2023/10/18 06:30:51;;;;;;;30.02;19.63;;;5.60;99.90;;;;;;5014504;28;20037;-76
2023/10/18 06:33:19;;;;;;;29.52;19.67;;;5.60;99.90;;;;;;5017464;28;20056;-76
2023/10/18 06:35:51;;;;;;;30.58;20.20;;;5.60;99.90;;;;;;5000535;28;20059;-76
2023/10/18 06:38:24;;;;;;;29.25;19.08;;;5.60;99.90;;;;;;5016216;28;20045;-76
2023/10/18 06:40:53;;;;;;;32.60;20.48;;;5.70;99.90;;;;;;5017181;28;20041;-76
2023/10/18 06:43:20;;;;;;;29.38;19.60;;;5.70;99.90;;;;;;5014475;28;20409;-77
2023/10/18 06:45:50;;;;;;;30.30;19.92;;;5.70;99.90;;;;;;4997276;28;20042;-78
2023/10/18 06:48:16;;;;;;;29.58;18.98;;;5.70;99.90;;;;;;4996751;28;20048;-77
2023/10/18 06:50:46;;;;;;;27.73;19.67;;;5.70;99.90;;;;;;5000162;28;20823;-77
2023/10/18 06:53:15;;;;;;;31.02;19.80;;;5.70;99.90;;;;;;4978203;28;20038;-77
2023/10/18 06:55:45;;;;;;;28.75;19.38;;;5.70;99.90;;;;;;4981519;28;20045;-77
2023/10/18 07:01:00;;;;;;;28.30;18.63;;;5.80;99.90;;;;;;4996524;28;20095;-78
2023/10/18 07:03:29;;;;;;;34.50;20.73;;;5.80;99.90;;;;;;4979029;28;20052;-79
2023/10/18 07:06:04;;;;;;;29.45;19.67;;;5.80;99.90;;;;;;4992559;28;20037;-79
2023/10/18 07:08:33;;;;;;;31.90;18.95;;;5.80;99.90;;;;;;4999547;28;20052;-79
2023/10/18 07:11:01;;;;;;;29.88;19.10;;;5.90;99.90;;;;;;5020101;28;20058;-79
2023/10/18 07:13:33;;;;;;;27.33;19.00;;;5.90;99.90;;;;;;4983597;28;20038;-80
2023/10/18 07:16:12;;;;;;;26.15;18.52;;;5.90;99.90;;;;;;5000123;28;20041;-80
2023/10/18 07:18:38;;;;;;;27.20;19.80;;;5.90;99.90;;;;;;4995356;28;20044;-79
2023/10/18 07:21:09;;;;;;;27.13;17.95;;;5.90;99.90;;;;;;4994742;28;20085;-79
2023/10/18 07:23:36;;;;;;;31.13;19.67;;;6.00;99.90;;;;;;4980265;28;20747;-79
2023/10/18 07:26:16;;;;;;;30.02;17.33;;;6.00;99.90;;;;;;4990147;28;20051;-81
2023/10/18 07:28:44;;;;;;;29.33;18.60;;;6.10;99.90;;;;;;4998375;28;20125;-83
2023/10/18 07:31:10;;;;;;;24.55;17.83;;;6.20;99.90;;;;;;4992270;28;20089;-80
2023/10/18 07:33:42;;;;;;;28.48;17.48;;;6.20;99.90;;;;;;5015628;28;20472;-83
2023/10/18 07:36:08;;;;;;;28.48;19.45;;;6.20;99.90;;;;;;4996521;28;20140;-82
2023/10/18 07:38:39;;;;;;;27.83;17.42;;;6.30;99.90;;;;;;5016326;28;20136;-82
2023/10/18 07:41:08;;;;;;;26.05;16.65;;;6.30;99.90;;;;;;4989601;28;20374;-80
2023/10/18 07:43:35;;;;;;;25.23;17.48;;;6.40;99.90;;;;;;5000235;28;20046;-81
2023/10/18 07:46:09;;;;;;;26.33;17.27;;;6.50;99.90;;;;;;5006320;28;20041;-81
2023/10/18 07:48:38;;;;;;;23.50;16.88;;;6.50;99.90;;;;;;5001277;28;20639;-76
2023/10/18 07:51:23;;;;;;;24.98;17.83;;;6.50;99.90;;;;;;5004239;28;20504;-78
2023/10/18 07:53:55;;;;;;;28.08;16.98;;;6.60;99.90;;;;;;5002116;28;20050;-84
2023/10/18 07:56:26;;;;;;;26.42;17.35;;;6.60;99.90;;;;;;4999386;28;20116;-82
2023/10/18 07:58:56;;;;;;;23.38;16.15;;;6.60;99.90;;;;;;4996583;28;20042;-82
2023/10/18 08:04:05;;;;;;;27.08;17.63;;;6.80;99.90;;;;;;4999179;28;20409;-80
2023/10/18 08:06:33;;;;;;;29.02;16.73;;;6.80;99.90;;;;;;5000313;28;20044;-82
2023/10/18 08:09:05;;;;;;;25.23;15.98;;;6.80;99.90;;;;;;5000286;28;20500;-80
2023/10/18 08:11:34;;;;;;;25.17;16.77;;;6.80;99.90;;;;;;5014298;28;20361;-80
2023/10/18 08:14:01;;;;;;;26.05;17.17;;;6.90;99.90;;;;;;4990983;28;20045;-80
2023/10/18 08:16:27;;;;;;;27.08;16.00;;;6.90;99.90;;;;;;5004779;28;20040;-80
2023/10/18 08:18:53;;;;;;;26.30;16.90;;;6.90;99.90;;;;;;5003905;28;20192;-80
2023/10/18 08:21:59;;;;;;;20.98;15.82;;;7.00;99.90;;;;;;4990686;28;20049;-80
2023/10/18 08:24:20;;;;;;;21.90;15.77;;;7.00;99.90;;;;;;4998312;28;20077;-80
2023/10/18 08:26:46;;;;;;;24.63;16.50;;;7.00;99.90;;;;;;4987388;28;20050;-80
2023/10/18 08:29:16;;;;;;;21.13;15.23;;;7.10;99.90;;;;;;4982996;28;20099;-79
2023/10/18 08:31:48;;;;;;;20.52;15.30;;;7.10;99.90;;;;;;4993524;28;20425;-82
2023/10/18 08:34:23;;;;;;;19.30;14.52;;;7.10;99.90;;;;;;5001234;28;20038;-80
2023/10/18 08:37:01;;;;;;;25.65;15.32;;;7.20;99.90;;;;;;4993822;28;20048;-81
2023/10/18 08:39:27;;;;;;;21.45;14.93;;;7.20;99.90;;;;;;5001031;28;20037;-81
2023/10/18 08:42:13;;;;;;;22.67;14.48;;;7.30;99.90;;;;;;4991429;28;20041;-70
2023/10/18 08:44:40;;;;;;;22.02;14.15;;;7.30;99.90;;;;;;5000718;28;20471;-78
2023/10/18 08:49:56;;;;;;;20.85;14.23;;;7.40;99.90;;;;;;5004480;28;20091;-81
2023/10/18 08:52:31;;;;;;;23.48;15.63;;;7.50;99.90;;;;;;5018846;28;20436;-80
2023/10/18 08:55:19;;;;;;;24.08;14.95;;;7.50;99.90;;;;;;5001799;28;20338;-83
2023/10/18 08:57:46;;;;;;;20.65;15.05;;;7.60;99.90;;;;;;4996691;28;20064;-81
2023/10/18 09:02:53;;;;;;;22.40;14.82;;;7.70;99.90;;;;;;4997215;28;20297;-83
2023/10/18 09:05:22;;;;;;;21.15;14.80;;;7.70;99.90;;;;;;4994762;28;20045;-82
2023/10/18 09:07:59;;;;;;;20.45;13.93;;;7.80;99.90;;;;;;4998891;28;20053;-82
2023/10/18 09:15:48;;;;;;;20.08;14.45;;;7.90;99.90;;;;;;4999946;28;20072;-82
2023/10/18 09:18:13;;;;;;;19.67;14.40;;;8.00;99.90;;;;;;5014490;28;20041;-83
2023/10/18 09:20:39;;;;;;;20.08;15.57;;;8.00;99.90;;;;;;4999773;28;20285;-82
2023/10/18 09:23:14;;;;;;;19.38;14.00;;;8.10;99.90;;;;;;5001800;28;20404;-80
2023/10/18 09:25:50;;;;;;;17.85;12.90;;;8.20;99.90;;;;;;5022667;28;20056;-83
2023/10/18 09:28:30;;;;;;;23.50;14.40;;;8.20;99.90;;;;;;4999299;28;20103;-83
2023/10/18 09:31:02;;;;;;;20.73;13.25;;;8.30;99.90;;;;;;5003047;28;20375;-80
2023/10/18 09:33:48;;;;;;;19.50;13.68;;;8.40;99.90;;;;;;5000562;28;20767;-82
2023/10/18 09:36:19;;;;;;;16.27;11.75;;;8.50;99.90;;;;;;4999911;28;20038;-80
2023/10/18 09:38:47;;;;;;;18.77;12.13;;;8.50;99.90;;;;;;5020590;28;20180;-81
2023/10/18 09:41:13;;;;;;;17.88;12.20;;;8.60;99.90;;;;;;4988315;28;20124;-81
2023/10/18 09:43:38;;;;;;;19.63;12.57;;;8.70;99.90;;;;;;4998833;28;20057;-83
2023/10/18 09:46:10;;;;;;;17.05;11.85;;;8.70;99.90;;;;;;4998225;28;20056;-82
2023/10/18 09:48:39;;;;;;;17.88;10.90;;;8.80;99.90;;;;;;4996002;28;20045;-80
2023/10/18 09:51:09;;;;;;;18.65;12.13;;;8.80;99.90;;;;;;5013522;28;20713;-80
2023/10/18 09:53:43;;;;;;;16.13;10.82;;;9.00;99.90;;;;;;5008339;28;20038;-82
2023/10/18 09:56:13;;;;;;;14.05;10.65;;;9.00;99.90;;;;;;5001029;28;20130;-79
2023/10/18 09:58:43;;;;;;;14.10;9.88;;;9.10;99.90;;;;;;4996102;28;20049;-79
2023/10/18 10:01:13;;;;;;;14.88;10.00;;;9.20;99.90;;;;;;4998230;28;20065;-79
2023/10/18 10:03:56;;;;;;;15.40;10.52;;;9.20;99.90;;;;;;4998956;28;20124;-80
2023/10/18 10:06:26;;;;;;;13.75;9.95;;;9.30;99.90;;;;;;4995457;28;20413;-79
2023/10/18 10:09:29;;;;;;;13.02;9.30;;;9.30;99.90;;;;;;4995458;28;20096;-79
2023/10/18 10:11:47;;;;;;;13.35;9.50;;;9.40;99.90;;;;;;4992560;28;20523;-81
2023/10/18 10:14:17;;;;;;;16.75;10.40;;;9.40;99.90;;;;;;5002033;28;20045;-79
2023/10/18 10:16:58;;;;;;;15.23;10.30;;;9.40;99.90;;;;;;5000709;28;20049;-82
2023/10/18 10:19:30;;;;;;;15.45;10.48;;;9.50;99.90;;;;;;4987046;28;20041;-81
2023/10/18 10:22:06;;;;;;;15.35;11.48;;;9.50;99.90;;;;;;4999001;28;20512;-79
2023/10/18 10:24:43;;;;;;;18.08;10.63;;;9.50;99.90;;;;;;4996545;28;20064;-80
2023/10/18 10:27:27;;;;;;;14.13;10.23;;;9.60;99.90;;;;;;5002605;28;20043;-80
2023/10/18 10:29:56;;;;;;;13.95;10.57;;;9.60;99.90;;;;;;4999266;28;20054;-81
2023/10/18 10:32:27;;;;;;;14.43;9.90;;;9.70;99.90;;;;;;5008532;28;20038;-82
2023/10/18 10:35:16;;;;;;;15.20;9.75;;;9.70;99.90;;;;;;4984249;28;20045;-81
2023/10/18 10:37:47;;;;;;;17.08;9.35;;;9.80;99.90;;;;;;4998108;28;20522;-83
2023/10/18 10:43:02;;;;;;;17.10;11.07;;;9.80;99.90;;;;;;5005524;28;20300;-81
2023/10/18 10:51:13;;;;;;;15.70;9.88;;;10.00;99.90;;;;;;5019043;28;20592;-80
2023/10/18 10:53:45;;;;;;;12.60;9.60;;;10.00;99.90;;;;;;4986429;28;20572;-82
2023/10/18 10:56:23;;;;;;;15.80;9.77;;;10.00;99.90;;;;;;4987733;28;20119;-80
2023/10/18 10:59:03;;;;;;;13.80;9.63;;;10.10;99.90;;;;;;5005778;28;20051;-88
2023/10/18 11:01:43;;;;;;;13.13;9.20;;;10.10;99.90;;;;;;5002663;28;20091;-84
2023/10/18 11:04:27;;;;;;;16.30;9.85;;;10.10;99.90;;;;;;5002101;28;20053;-86
2023/10/18 11:06:57;;;;;;;15.70;9.60;;;10.10;99.90;;;;;;5007017;28;20048;-85
2023/10/18 11:09:33;;;;;;;15.55;10.10;;;10.20;99.90;;;;;;5009156;28;20044;-84
2023/10/18 11:12:13;;;;;;;13.38;9.10;;;10.20;99.90;;;;;;4997629;28;20414;-89
2023/10/18 11:14:42;;;;;;;15.00;10.68;;;10.30;99.90;;;;;;5001031;28;20045;-91
2023/10/18 11:19:51;;;;;;;17.77;9.97;;;10.40;99.90;;;;;;5003310;28;20296;-86
2023/10/18 11:22:23;;;;;;;13.35;9.75;;;10.40;99.90;;;;;;4982978;28;21910;-82
2023/10/18 11:24:50;;;;;;;13.48;9.52;;;10.40;99.90;;;;;;5010745;28;20038;-79
2023/10/18 11:27:23;;;;;;;14.63;8.95;;;10.40;99.90;;;;;;4995856;28;20523;-81
2023/10/18 11:30:13;;;;;;;14.98;9.35;;;10.40;99.90;;;;;;4993863;28;20057;-80
2023/10/18 11:32:39;;;;;;;13.98;9.25;;;10.40;99.90;;;;;;4995276;28;20635;-81
2023/10/18 11:35:12;;;;;;;13.48;9.38;;;10.40;99.90;;;;;;4997453;28;20056;-81
2023/10/18 11:37:40;;;;;;;13.90;8.98;;;10.50;99.90;;;;;;4980179;28;20053;-81
2023/10/18 11:40:16;;;;;;;13.27;9.20;;;10.50;99.90;;;;;;4997998;28;20041;-80
2023/10/18 11:43:08;;;;;;;12.52;9.02;;;10.50;99.90;;;;;;4998787;28;20136;-80
2023/10/18 11:45:36;;;;;;;11.40;8.75;;;10.60;99.90;;;;;;4995391;28;20034;-80
2023/10/18 11:48:03;;;;;;;15.65;9.38;;;10.60;99.90;;;;;;4996416;28;20085;-79
2023/10/18 11:50:47;;;;;;;13.25;9.10;;;10.60;99.90;;;;;;5019609;28;20554;-78
2023/10/18 11:53:15;;;;;;;17.10;9.63;;;10.70;99.90;;;;;;5001616;28;20049;-75
2023/10/18 11:56:06;;;;;;;17.95;10.32;;;10.70;99.90;;;;;;5024355;28;20500;-74
2023/10/18 11:58:35;;;;;;;12.80;9.23;;;10.70;99.90;;;;;;4999204;28;20578;-73
2023/10/18 12:01:15;;;;;;;13.85;8.95;;;10.70;99.90;;;;;;5012634;28;20580;-74
2023/10/18 12:03:43;;;;;;;13.98;9.73;;;10.80;99.90;;;;;;4997444;28;20133;-74
2023/10/18 12:06:11;;;;;;;11.68;8.93;;;10.80;99.90;;;;;;5001994;28;20040;-73
2023/10/18 12:11:28;;;;;;;12.43;8.63;;;10.80;99.90;;;;;;5001519;28;20128;-74
2023/10/18 12:13:54;;;;;;;13.35;8.20;;;10.80;99.90;;;;;;4988316;28;20044;-76
2023/10/18 12:16:22;;;;;;;16.63;9.65;;;10.80;99.90;;;;;;4997627;28;20029;-74
2023/10/18 12:18:48;;;;;;;13.13;9.32;;;10.80;99.90;;;;;;4987403;28;20050;-74
2023/10/18 12:21:14;;;;;;;13.40;9.23;;;10.90;99.90;;;;;;5003452;28;20064;-73
2023/10/18 12:23:40;;;;;;;12.65;9.07;;;10.90;99.90;;;;;;5000926;28;20270;-72
2023/10/18 12:26:06;;;;;;;13.43;8.98;;;10.90;99.90;;;;;;5007369;28;20054;-74
2023/10/18 12:28:37;;;;;;;14.27;9.15;;;10.90;99.90;;;;;;5019866;28;20040;-74
2023/10/18 12:31:12;;;;;;;16.55;10.27;;;10.90;99.90;;;;;;4997634;28;20057;-73
2023/10/18 12:33:40;;;;;;;10.13;7.55;;;10.90;99.90;;;;;;5002755;28;20057;-75
2023/10/18 12:36:08;;;;;;;11.38;8.25;;;10.90;99.90;;;;;;5001888;28;20041;-75
2023/10/18 12:38:36;;;;;;;13.77;9.20;;;10.90;99.90;;;;;;4989406;28;20044;-76
2023/10/18 12:41:31;;;;;;;12.05;8.10;;;11.00;99.90;;;;;;5008740;28;20554;-76
2023/10/18 12:43:59;;;;;;;10.85;8.10;;;11.00;99.90;;;;;;5017303;28;20073;-75
2023/10/18 12:46:25;;;;;;;11.77;8.18;;;11.10;99.90;;;;;;5004619;28;20041;-74
2023/10/18 12:48:51;;;;;;;12.55;8.95;;;11.10;99.90;;;;;;5016431;28;20111;-76
2023/10/18 12:51:30;;;;;;;12.13;8.43;;;11.10;99.90;;;;;;5019443;28;20037;-76
2023/10/18 12:53:57;;;;;;;14.95;8.30;;;11.20;99.90;;;;;;5000204;28;20085;-75
2023/10/18 12:58:58;;;;;;;13.40;9.23;;;11.30;99.90;;;;;;4998619;28;20103;-76
2023/10/18 13:01:32;;;;;;;11.30;8.45;;;11.40;99.90;;;;;;4998816;28;20049;-76
2023/10/18 13:04:06;;;;;;;12.45;8.40;;;11.40;99.90;;;;;;4998663;28;20045;-75
2023/10/18 13:06:35;;;;;;;10.93;7.72;;;11.50;99.90;;;;;;5000197;28;20046;-75
2023/10/18 13:09:19;;;;;;;13.30;8.50;;;11.50;99.90;;;;;;5002494;28;20056;-76
2023/10/18 13:11:52;;;;;;;13.63;8.15;;;11.50;99.90;;;;;;5000228;28;20500;-76
2023/10/18 13:14:23;;;;;;;13.30;8.32;;;11.50;99.90;;;;;;5022444;28;20049;-76
2023/10/18 13:16:54;;;;;;;11.35;7.78;;;11.50;99.90;;;;;;4988366;28;20053;-75
2023/10/18 13:19:19;;;;;;;11.05;8.63;;;11.50;99.90;;;;;;5017407;28;20095;-75
2023/10/18 13:21:47;;;;;;;10.68;7.63;;;11.50;99.90;;;;;;4986943;28;20057;-76
2023/10/18 13:24:17;;;;;;;11.18;7.53;;;11.50;99.90;;;;;;5002136;28;20052;-75
2023/10/18 13:26:47;;;;;;;11.88;8.18;;;11.50;99.90;;;;;;5016603;28;20659;-75
2023/10/18 13:29:27;;;;;;;14.45;7.65;;;11.50;99.90;;;;;;5017944;28;20232;-76
2023/10/18 13:31:59;;;;;;;11.18;8.02;;;11.50;99.90;;;;;;5001040;28;20116;-76
2023/10/18 13:34:39;;;;;;;10.43;7.53;;;11.50;99.90;;;;;;4999154;28;20045;-75
2023/10/18 13:37:10;;;;;;;16.02;8.77;;;11.40;99.90;;;;;;5002141;28;20041;-75
2023/10/18 13:39:35;;;;;;;11.60;8.50;;;11.40;99.90;;;;;;5018906;28;20081;-75
2023/10/18 13:42:02;;;;;;;11.90;7.85;;;11.40;99.90;;;;;;4999655;28;20397;-71
2023/10/18 13:44:29;;;;;;;11.75;8.48;;;11.40;99.90;;;;;;4984905;28;20505;-75
2023/10/18 13:46:55;;;;;;;12.13;7.80;;;11.40;99.90;;;;;;4999001;28;20080;-75
2023/10/18 13:49:23;;;;;;;9.70;7.25;;;11.40;99.90;;;;;;5002526;28;20485;-75
2023/10/18 13:51:50;;;;;;;11.18;7.57;;;11.40;99.90;;;;;;5003223;28;20072;-75
2023/10/18 13:54:15;;;;;;;11.20;7.53;;;11.40;99.90;;;;;;5000436;28;20050;-75
2023/10/18 13:56:43;;;;;;;9.32;6.72;;;11.40;99.90;;;;;;4987090;28;20056;-75
2023/10/18 13:59:10;;;;;;;10.18;7.15;;;11.40;99.90;;;;;;4985318;28;20042;-75